KNBG/NBG METAR and TAF weather

Enter ICAO airport designator
Station Type Date Time Source
KNBG METAR 2022/01/27 21:55 UTC NOAA

KNBG 272155Z 35005KT 10SM SCT250 17/00 A3016 RMK AO2 SLP212 T01720000 $


Station Type Date Time Source
KNBG Decoded METAR 2022/01/27 21:55 UTC NOAA

NEW ORLEANS NAVAL AIR STN, LA, United States (KNBG) 29-50N 90-01W
Jan 27, 2022 - 04:55 PM EST / 2022.01.27 2155 UTC
Wind: from the N (350 degrees) at 6 MPH (5 KT):0
Visibility: 10 mile(s):0
Sky conditions: partly cloudy
Temperature: 63.0 F (17.2 C)
Dew Point: 32.0 F (0.0 C)
Relative Humidity: 31%
Pressure (altimeter): 30.16 in. Hg (1021 hPa)
ob: KNBG 272155Z 35005KT 10SM SCT250 17/00 A3016 RMK AO2 SLP212 T01720000
cycle: 22

Station Type Date Time Source
KNBG TAF 2022/01/27 15:09 UTC NOAA

TAF KNBG 2715/2815 05008KT 9999 FEW050 BKN250 QNH3016INS
BECMG 2723/2801 36006KT 9999 SCT250 QNH3014INS
BECMG 2813/2815 35010G17KT 9999 FEW030 BKN100 BKN250 QNH3020INS T15/2721Z T02/2812Z FN20039

Example: see airport list